NCAR-RAP Real-Time Weather Data

Output produced by METARs form (23 June 2018  19:30 UTC)
found at http://weather.rap.ucar.edu/surface/
 
RJSI 231000Z 20007KT 9999 FEW060 SCT160 BKN/// 23/16 Q1002
RJSI 230900Z 16005KT 130V190 9999 FEW060 SCT180 BKN/// 24/16 Q1002
RJSI 230800Z 19010KT 9999 FEW060 SCT180 BKN/// 25/15 Q1002
RJSI 230700Z 18012KT 9999 FEW030 SCT060 BKN/// 26/13 Q1003
RJSI 230600Z 18014KT 9999 FEW030 SCT060 BKN/// 27/12 Q1003
RJSI 230500Z 16009KT 140V200 9999 FEW030 SCT160 BKN/// 28/14 Q1004
RJSI 230400Z 19010KT 150V210 CAVOK 26/14 Q1004
RJSI 230300Z 14004KT 090V210 CAVOK 26/14 Q1005
RJSI 230200Z 17007KT 130V220 CAVOK 24/13 Q1006
RJSI 230100Z VRB03KT CAVOK 24/14 Q1007
RJSI 230000Z 16008KT CAVOK 22/15 Q1008
RJSI 222300Z VRB02KT 9999 FEW040 BKN/// 21/14 Q1008
RJSI 222240Z 22006KT 9999 FEW040 BKN/// 20/15 Q1008 RMK 1CU040 A2979
RJSI 221000Z 25004KT 190V320 9999 FEW030 SCT060 20/12 Q1007
RJSI 220900Z 22004KT 180V260 9999 FEW030 BKN060 22/12 Q1006
RJSI 220800Z 24007KT 200V310 9999 FEW040 BKN070 22/11 Q1006
RJSI 220700Z 26007KT 200V310 9999 FEW030 SCT045 BKN070 25/12 Q1005
RJSI 220600Z 26005KT 180V320 9999 FEW030 SCT045 BKN070 24/14 Q1005
RJSI 220500Z 26010G20KT 210V320 9999 FEW030 SCT045 BKN070 23/13 Q1005
RJSI 220400Z 26007KT 200V330 9999 FEW030 SCT045 BKN070 23/12 Q1005
RJSI 220300Z 27007KT 210V330 9999 FEW030 BKN050 22/13 Q1006
RJSI 220200Z 24004KT 170V290 9999 FEW030 BKN040 21/14 Q1006
RJSI 220100Z 25006KT 210V330 9999 FEW030 BKN040 20/13 Q1006
RJSI 220000Z 23004KT 180V280 9999 FEW020 BKN040 19/13 Q1006
RJSI 212300Z 20006KT 150V220 9999 FEW020 BKN030 19/13 Q1006
RJSI 212240Z 22004KT 170V260 9999 FEW020 BKN030 19/13 Q1006 RMK 1CU020 6CU030 A2971
RJSI 211000Z 23005KT 200V270 9999 FEW030 BKN040 BKN060 21/15 Q1002
RJSI 210900Z 30004KT 220V360 9999 FEW030 SCT040 BKN060 22/16 Q1001
RJSI 210800Z 31004KT 250V350 9999 FEW040 BKN/// 22/16 Q1001